sensor_id;sensor_type;location;lat;lon;timestamp;P1;durP1;ratioP1;P2;durP2;ratioP2
78612;SDS011;67933;51.060;3.638;2024-02-26T00:02:15;0.40;;;0.40;;
78612;SDS011;67933;51.060;3.638;2024-02-26T00:04:41;0.08;;;0.08;;
78612;SDS011;67933;51.060;3.638;2024-02-26T00:07:07;0.90;;;0.55;;
78612;SDS011;67933;51.060;3.638;2024-02-26T00:09:32;0.25;;;0.25;;
78612;SDS011;67933;51.060;3.638;2024-02-26T00:12:01;0.13;;;0.13;;
78612;SDS011;67933;51.060;3.638;2024-02-26T00:14:28;0.50;;;0.50;;
78612;SDS011;67933;51.060;3.638;2024-02-26T00:16:54;0.13;;;0.13;;
78612;SDS011;67933;51.060;3.638;2024-02-26T00:19:20;0.20;;;0.20;;
78612;SDS011;67933;51.060;3.638;2024-02-26T00:21:45;0.10;;;0.10;;
78612;SDS011;67933;51.060;3.638;2024-02-26T00:24:10;0.80;;;0.80;;
78612;SDS011;67933;51.060;3.638;2024-02-26T00:26:36;0.10;;;0.10;;
78612;SDS011;67933;51.060;3.638;2024-02-26T00:29:01;0.20;;;0.20;;
78612;SDS011;67933;51.060;3.638;2024-02-26T00:31:27;0.10;;;0.10;;
78612;SDS011;67933;51.060;3.638;2024-02-26T00:33:52;0.20;;;0.20;;
78612;SDS011;67933;51.060;3.638;2024-02-26T00:36:17;0.82;;;0.82;;
78612;SDS011;67933;51.060;3.638;2024-02-26T00:38:44;0.50;;;0.50;;
78612;SDS011;67933;51.060;3.638;2024-02-26T00:41:11;1.02;;;1.02;;
78612;SDS011;67933;51.060;3.638;2024-02-26T00:43:37;0.30;;;0.25;;
78612;SDS011;67933;51.060;3.638;2024-02-26T00:46:05;0.20;;;0.20;;
78612;SDS011;67933;51.060;3.638;2024-02-26T00:48:30;1.15;;;1.05;;
78612;SDS011;67933;51.060;3.638;2024-02-26T00:50:56;0.25;;;0.25;;
78612;SDS011;67933;51.060;3.638;2024-02-26T00:53:21;0.10;;;0.10;;
78612;SDS011;67933;51.060;3.638;2024-02-26T00:55:46;0.20;;;0.20;;
78612;SDS011;67933;51.060;3.638;2024-02-26T00:58:12;0.35;;;0.35;;
78612;SDS011;67933;51.060;3.638;2024-02-26T01:00:37;1.05;;;0.85;;
78612;SDS011;67933;51.060;3.638;2024-02-26T01:03:03;0.38;;;0.38;;
78612;SDS011;67933;51.060;3.638;2024-02-26T01:05:29;0.80;;;0.77;;
78612;SDS011;67933;51.060;3.638;2024-02-26T01:07:55;0.40;;;0.40;;
78612;SDS011;67933;51.060;3.638;2024-02-26T01:10:20;0.70;;;0.70;;
78612;SDS011;67933;51.060;3.638;2024-02-26T01:12:45;0.20;;;0.20;;
78612;SDS011;67933;51.060;3.638;2024-02-26T01:15:11;0.20;;;0.20;;
78612;SDS011;67933;51.060;3.638;2024-02-26T01:17:36;0.38;;;0.38;;
78612;SDS011;67933;51.060;3.638;2024-02-26T01:20:02;1.23;;;1.02;;
78612;SDS011;67933;51.060;3.638;2024-02-26T01:22:27;1.20;;;1.10;;
78612;SDS011;67933;51.060;3.638;2024-02-26T01:24:53;0.90;;;0.35;;
78612;SDS011;67933;51.060;3.638;2024-02-26T01:27:18;0.32;;;0.30;;
78612;SDS011;67933;51.060;3.638;2024-02-26T01:29:44;0.90;;;0.90;;
78612;SDS011;67933;51.060;3.638;2024-02-26T01:32:10;0.43;;;0.32;;
78612;SDS011;67933;51.060;3.638;2024-02-26T01:34:35;0.57;;;0.40;;
78612;SDS011;67933;51.060;3.638;2024-02-26T01:37:02;0.68;;;0.60;;
78612;SDS011;67933;51.060;3.638;2024-02-26T01:39:27;5.72;;;0.57;;
78612;SDS011;67933;51.060;3.638;2024-02-26T01:41:54;1.80;;;1.33;;
78612;SDS011;67933;51.060;3.638;2024-02-26T01:44:19;0.20;;;0.20;;
78612;SDS011;67933;51.060;3.638;2024-02-26T01:46:45;0.80;;;0.77;;
78612;SDS011;67933;51.060;3.638;2024-02-26T01:51:38;0.17;;;0.17;;
78612;SDS011;67933;51.060;3.638;2024-02-26T01:54:05;0.47;;;0.40;;
78612;SDS011;67933;51.060;3.638;2024-02-26T01:56:33;2.42;;;2.03;;
78612;SDS011;67933;51.060;3.638;2024-02-26T01:59:00;0.52;;;0.30;;
78612;SDS011;67933;51.060;3.638;2024-02-26T02:01:27;0.73;;;0.68;;
78612;SDS011;67933;51.060;3.638;2024-02-26T02:03:54;1.05;;;1.00;;
78612;SDS011;67933;51.060;3.638;2024-02-26T02:06:24;0.35;;;0.35;;
78612;SDS011;67933;51.060;3.638;2024-02-26T02:08:50;1.55;;;0.40;;
78612;SDS011;67933;51.060;3.638;2024-02-26T02:11:16;0.60;;;0.17;;
78612;SDS011;67933;51.060;3.638;2024-02-26T02:13:42;0.20;;;0.20;;
78612;SDS011;67933;51.060;3.638;2024-02-26T02:16:07;0.52;;;0.52;;
78612;SDS011;67933;51.060;3.638;2024-02-26T02:18:33;0.30;;;0.30;;
78612;SDS011;67933;51.060;3.638;2024-02-26T02:21:01;0.52;;;0.38;;
78612;SDS011;67933;51.060;3.638;2024-02-26T02:23:27;0.20;;;0.20;;
78612;SDS011;67933;51.060;3.638;2024-02-26T02:25:53;0.20;;;0.20;;
78612;SDS011;67933;51.060;3.638;2024-02-26T02:28:20;0.38;;;0.38;;
78612;SDS011;67933;51.060;3.638;2024-02-26T02:30:46;0.50;;;0.50;;
78612;SDS011;67933;51.060;3.638;2024-02-26T02:33:12;0.30;;;0.30;;
78612;SDS011;67933;51.060;3.638;2024-02-26T02:35:37;0.10;;;0.10;;
78612;SDS011;67933;51.060;3.638;2024-02-26T02:38:03;0.35;;;0.35;;
78612;SDS011;67933;51.060;3.638;2024-02-26T02:40:29;2.65;;;0.82;;
78612;SDS011;67933;51.060;3.638;2024-02-26T02:42:54;0.30;;;0.30;;
78612;SDS011;67933;51.060;3.638;2024-02-26T02:45:19;1.27;;;0.55;;
78612;SDS011;67933;51.060;3.638;2024-02-26T02:47:45;1.58;;;1.45;;
78612;SDS011;67933;51.060;3.638;2024-02-26T02:50:10;0.63;;;0.63;;
78612;SDS011;67933;51.060;3.638;2024-02-26T02:52:36;0.57;;;0.57;;
78612;SDS011;67933;51.060;3.638;2024-02-26T02:55:01;1.25;;;0.90;;
78612;SDS011;67933;51.060;3.638;2024-02-26T02:57:26;0.20;;;0.20;;
78612;SDS011;67933;51.060;3.638;2024-02-26T02:59:52;0.80;;;0.68;;
78612;SDS011;67933;51.060;3.638;2024-02-26T03:02:17;0.35;;;0.35;;
78612;SDS011;67933;51.060;3.638;2024-02-26T03:04:43;0.13;;;0.10;;
78612;SDS011;67933;51.060;3.638;2024-02-26T03:07:08;0.55;;;0.55;;
78612;SDS011;67933;51.060;3.638;2024-02-26T03:09:34;1.05;;;0.98;;
78612;SDS011;67933;51.060;3.638;2024-02-26T03:11:59;0.50;;;0.50;;
78612;SDS011;67933;51.060;3.638;2024-02-26T03:14:25;1.60;;;0.95;;
78612;SDS011;67933;51.060;3.638;2024-02-26T03:16:54;0.85;;;0.73;;
78612;SDS011;67933;51.060;3.638;2024-02-26T03:19:20;1.95;;;1.10;;
78612;SDS011;67933;51.060;3.638;2024-02-26T03:21:45;1.17;;;0.75;;
78612;SDS011;67933;51.060;3.638;2024-02-26T03:24:11;0.80;;;0.75;;
78612;SDS011;67933;51.060;3.638;2024-02-26T03:26:37;2.72;;;1.30;;
78612;SDS011;67933;51.060;3.638;2024-02-26T03:29:02;0.45;;;0.40;;
78612;SDS011;67933;51.060;3.638;2024-02-26T03:31:28;0.75;;;0.70;;
78612;SDS011;67933;51.060;3.638;2024-02-26T03:33:53;0.77;;;0.77;;
78612;SDS011;67933;51.060;3.638;2024-02-26T03:36:19;1.67;;;1.38;;
78612;SDS011;67933;51.060;3.638;2024-02-26T03:38:45;1.40;;;1.23;;
78612;SDS011;67933;51.060;3.638;2024-02-26T03:41:10;1.38;;;1.30;;
78612;SDS011;67933;51.060;3.638;2024-02-26T03:43:35;0.52;;;0.52;;
78612;SDS011;67933;51.060;3.638;2024-02-26T03:46:01;5.00;;;2.17;;
78612;SDS011;67933;51.060;3.638;2024-02-26T03:48:27;1.25;;;1.00;;
78612;SDS011;67933;51.060;3.638;2024-02-26T03:50:52;1.08;;;1.00;;
78612;SDS011;67933;51.060;3.638;2024-02-26T03:53:18;0.60;;;0.60;;
78612;SDS011;67933;51.060;3.638;2024-02-26T03:55:43;1.00;;;1.00;;
78612;SDS011;67933;51.060;3.638;2024-02-26T03:58:08;4.85;;;2.40;;
78612;SDS011;67933;51.060;3.638;2024-02-26T04:00:34;1.65;;;1.55;;
78612;SDS011;67933;51.060;3.638;2024-02-26T04:02:59;1.77;;;1.67;;
78612;SDS011;67933;51.060;3.638;2024-02-26T04:05:25;1.35;;;1.25;;
78612;SDS011;67933;51.060;3.638;2024-02-26T04:07:50;2.22;;;1.60;;
78612;SDS011;67933;51.060;3.638;2024-02-26T04:10:15;3.03;;;2.65;;
78612;SDS011;67933;51.060;3.638;2024-02-26T04:12:41;1.98;;;1.88;;
78612;SDS011;67933;51.060;3.638;2024-02-26T04:15:08;2.20;;;1.83;;
78612;SDS011;67933;51.060;3.638;2024-02-26T04:17:34;2.33;;;2.20;;
78612;SDS011;67933;51.060;3.638;2024-02-26T04:20:00;2.28;;;2.08;;
78612;SDS011;67933;51.060;3.638;2024-02-26T04:22:27;2.53;;;2.33;;
78612;SDS011;67933;51.060;3.638;2024-02-26T04:24:52;1.17;;;0.77;;
78612;SDS011;67933;51.060;3.638;2024-02-26T04:27:18;2.30;;;2.10;;
78612;SDS011;67933;51.060;3.638;2024-02-26T04:29:43;2.22;;;1.92;;
78612;SDS011;67933;51.060;3.638;2024-02-26T04:32:08;1.83;;;1.73;;
78612;SDS011;67933;51.060;3.638;2024-02-26T04:34:34;1.27;;;1.10;;
78612;SDS011;67933;51.060;3.638;2024-02-26T04:37:00;1.40;;;1.30;;
78612;SDS011;67933;51.060;3.638;2024-02-26T04:39:25;3.60;;;2.75;;
78612;SDS011;67933;51.060;3.638;2024-02-26T04:41:51;7.78;;;3.80;;
78612;SDS011;67933;51.060;3.638;2024-02-26T04:44:16;1.50;;;1.40;;
78612;SDS011;67933;51.060;3.638;2024-02-26T04:46:42;2.17;;;1.92;;
78612;SDS011;67933;51.060;3.638;2024-02-26T04:49:07;2.40;;;1.80;;
78612;SDS011;67933;51.060;3.638;2024-02-26T04:51:32;2.28;;;2.08;;
78612;SDS011;67933;51.060;3.638;2024-02-26T04:53:58;2.42;;;1.23;;
78612;SDS011;67933;51.060;3.638;2024-02-26T04:56:24;3.33;;;2.80;;
78612;SDS011;67933;51.060;3.638;2024-02-26T04:58:50;2.70;;;1.42;;
78612;SDS011;67933;51.060;3.638;2024-02-26T05:01:15;2.78;;;1.63;;
78612;SDS011;67933;51.060;3.638;2024-02-26T05:03:42;2.00;;;1.70;;
78612;SDS011;67933;51.060;3.638;2024-02-26T05:06:08;1.52;;;1.42;;
78612;SDS011;67933;51.060;3.638;2024-02-26T05:08:34;2.50;;;2.30;;
78612;SDS011;67933;51.060;3.638;2024-02-26T05:11:00;1.00;;;0.95;;
78612;SDS011;67933;51.060;3.638;2024-02-26T05:13:27;2.95;;;1.17;;
78612;SDS011;67933;51.060;3.638;2024-02-26T05:15:53;3.28;;;2.40;;
78612;SDS011;67933;51.060;3.638;2024-02-26T05:18:19;1.38;;;0.95;;
78612;SDS011;67933;51.060;3.638;2024-02-26T05:20:44;0.60;;;0.47;;
78612;SDS011;67933;51.060;3.638;2024-02-26T05:23:10;2.83;;;2.45;;
78612;SDS011;67933;51.060;3.638;2024-02-26T05:25:35;0.95;;;0.82;;
78612;SDS011;67933;51.060;3.638;2024-02-26T05:28:01;1.90;;;1.67;;
78612;SDS011;67933;51.060;3.638;2024-02-26T05:30:26;2.83;;;2.35;;
78612;SDS011;67933;51.060;3.638;2024-02-26T05:32:53;2.90;;;2.05;;
78612;SDS011;67933;51.060;3.638;2024-02-26T05:35:18;1.15;;;1.00;;
78612;SDS011;67933;51.060;3.638;2024-02-26T05:37:44;2.30;;;1.63;;
78612;SDS011;67933;51.060;3.638;2024-02-26T05:40:10;0.77;;;0.77;;
78612;SDS011;67933;51.060;3.638;2024-02-26T05:42:36;4.82;;;2.33;;
78612;SDS011;67933;51.060;3.638;2024-02-26T05:45:01;1.75;;;1.60;;
78612;SDS011;67933;51.060;3.638;2024-02-26T05:47:32;14.90;;;2.38;;
78612;SDS011;67933;51.060;3.638;2024-02-26T05:49:58;3.13;;;2.83;;
78612;SDS011;67933;51.060;3.638;2024-02-26T05:52:25;1.73;;;1.63;;
78612;SDS011;67933;51.060;3.638;2024-02-26T05:54:51;3.03;;;1.92;;
78612;SDS011;67933;51.060;3.638;2024-02-26T05:57:16;1.33;;;1.23;;
78612;SDS011;67933;51.060;3.638;2024-02-26T05:59:43;3.28;;;2.38;;
78612;SDS011;67933;51.060;3.638;2024-02-26T06:02:09;0.75;;;0.75;;
78612;SDS011;67933;51.060;3.638;2024-02-26T06:04:34;2.15;;;1.73;;
78612;SDS011;67933;51.060;3.638;2024-02-26T06:07:00;1.02;;;0.90;;
78612;SDS011;67933;51.060;3.638;2024-02-26T06:09:25;3.17;;;2.17;;
78612;SDS011;67933;51.060;3.638;2024-02-26T06:11:51;1.45;;;1.23;;
78612;SDS011;67933;51.060;3.638;2024-02-26T06:14:16;2.50;;;2.13;;
78612;SDS011;67933;51.060;3.638;2024-02-26T06:16:43;3.67;;;2.50;;
78612;SDS011;67933;51.060;3.638;2024-02-26T06:19:09;2.88;;;1.98;;
78612;SDS011;67933;51.060;3.638;2024-02-26T06:21:35;3.10;;;2.38;;
78612;SDS011;67933;51.060;3.638;2024-02-26T06:24:00;4.35;;;3.10;;
78612;SDS011;67933;51.060;3.638;2024-02-26T06:26:26;2.72;;;2.05;;
78612;SDS011;67933;51.060;3.638;2024-02-26T06:28:53;3.10;;;2.10;;
78612;SDS011;67933;51.060;3.638;2024-02-26T06:31:19;3.03;;;2.22;;
78612;SDS011;67933;51.060;3.638;2024-02-26T06:33:47;3.72;;;3.17;;
78612;SDS011;67933;51.060;3.638;2024-02-26T06:36:12;2.92;;;2.03;;
78612;SDS011;67933;51.060;3.638;2024-02-26T06:38:38;3.15;;;2.38;;
78612;SDS011;67933;51.060;3.638;2024-02-26T06:41:03;3.42;;;3.05;;
78612;SDS011;67933;51.060;3.638;2024-02-26T06:43:28;2.83;;;2.03;;
78612;SDS011;67933;51.060;3.638;2024-02-26T06:45:54;4.13;;;2.97;;
78612;SDS011;67933;51.060;3.638;2024-02-26T06:48:19;1.88;;;1.70;;
78612;SDS011;67933;51.060;3.638;2024-02-26T06:50:45;2.03;;;1.80;;
78612;SDS011;67933;51.060;3.638;2024-02-26T06:53:10;5.15;;;3.15;;
78612;SDS011;67933;51.060;3.638;2024-02-26T06:55:35;2.47;;;2.28;;
78612;SDS011;67933;51.060;3.638;2024-02-26T06:58:05;1.65;;;1.48;;
78612;SDS011;67933;51.060;3.638;2024-02-26T07:00:30;4.10;;;3.47;;
78612;SDS011;67933;51.060;3.638;2024-02-26T07:02:55;4.80;;;3.78;;
78612;SDS011;67933;51.060;3.638;2024-02-26T07:05:21;4.35;;;3.80;;
78612;SDS011;67933;51.060;3.638;2024-02-26T07:07:47;2.15;;;1.95;;
78612;SDS011;67933;51.060;3.638;2024-02-26T07:10:12;5.82;;;2.35;;
78612;SDS011;67933;51.060;3.638;2024-02-26T07:12:38;4.32;;;2.40;;
78612;SDS011;67933;51.060;3.638;2024-02-26T07:15:05;2.33;;;1.50;;
78612;SDS011;67933;51.060;3.638;2024-02-26T07:17:33;2.97;;;2.08;;
78612;SDS011;67933;51.060;3.638;2024-02-26T07:20:01;3.65;;;1.85;;
78612;SDS011;67933;51.060;3.638;2024-02-26T07:22:30;1.25;;;1.15;;
78612;SDS011;67933;51.060;3.638;2024-02-26T07:24:56;3.90;;;2.55;;
78612;SDS011;67933;51.060;3.638;2024-02-26T07:27:21;2.78;;;2.58;;
78612;SDS011;67933;51.060;3.638;2024-02-26T07:29:47;2.40;;;2.08;;
78612;SDS011;67933;51.060;3.638;2024-02-26T07:32:12;3.92;;;2.20;;
78612;SDS011;67933;51.060;3.638;2024-02-26T07:34:38;2.45;;;2.17;;
78612;SDS011;67933;51.060;3.638;2024-02-26T07:37:06;1.73;;;1.42;;
78612;SDS011;67933;51.060;3.638;2024-02-26T07:39:32;4.53;;;2.88;;
78612;SDS011;67933;51.060;3.638;2024-02-26T07:41:58;2.30;;;2.10;;
78612;SDS011;67933;51.060;3.638;2024-02-26T07:44:24;1.65;;;1.50;;
78612;SDS011;67933;51.060;3.638;2024-02-26T07:46:50;3.22;;;2.00;;
78612;SDS011;67933;51.060;3.638;2024-02-26T07:49:15;0.80;;;0.80;;
78612;SDS011;67933;51.060;3.638;2024-02-26T07:51:41;1.30;;;1.23;;
78612;SDS011;67933;51.060;3.638;2024-02-26T07:54:07;4.30;;;2.53;;
78612;SDS011;67933;51.060;3.638;2024-02-26T07:56:32;3.83;;;2.55;;
78612;SDS011;67933;51.060;3.638;2024-02-26T07:58:58;2.25;;;1.67;;
78612;SDS011;67933;51.060;3.638;2024-02-26T08:01:23;1.77;;;1.52;;
78612;SDS011;67933;51.060;3.638;2024-02-26T08:03:49;2.58;;;2.38;;
78612;SDS011;67933;51.060;3.638;2024-02-26T08:06:16;1.33;;;1.23;;
78612;SDS011;67933;51.060;3.638;2024-02-26T08:08:41;1.80;;;1.70;;
78612;SDS011;67933;51.060;3.638;2024-02-26T08:11:07;2.20;;;1.98;;
78612;SDS011;67933;51.060;3.638;2024-02-26T08:13:33;3.00;;;2.47;;
78612;SDS011;67933;51.060;3.638;2024-02-26T08:15:59;3.63;;;2.63;;
78612;SDS011;67933;51.060;3.638;2024-02-26T08:18:24;4.13;;;2.58;;
78612;SDS011;67933;51.060;3.638;2024-02-26T08:20:50;2.17;;;1.65;;
78612;SDS011;67933;51.060;3.638;2024-02-26T08:23:15;2.55;;;2.35;;
78612;SDS011;67933;51.060;3.638;2024-02-26T08:25:41;2.75;;;2.55;;
78612;SDS011;67933;51.060;3.638;2024-02-26T08:28:06;4.07;;;2.55;;
78612;SDS011;67933;51.060;3.638;2024-02-26T08:30:31;10.93;;;3.03;;
78612;SDS011;67933;51.060;3.638;2024-02-26T08:32:57;1.27;;;1.15;;
78612;SDS011;67933;51.060;3.638;2024-02-26T08:35:22;2.97;;;2.15;;
78612;SDS011;67933;51.060;3.638;2024-02-26T08:37:48;5.03;;;3.67;;
78612;SDS011;67933;51.060;3.638;2024-02-26T08:40:14;2.17;;;1.92;;
78612;SDS011;67933;51.060;3.638;2024-02-26T08:42:39;2.45;;;2.00;;
78612;SDS011;67933;51.060;3.638;2024-02-26T08:45:07;2.97;;;2.45;;
78612;SDS011;67933;51.060;3.638;2024-02-26T08:47:33;3.00;;;2.38;;
78612;SDS011;67933;51.060;3.638;2024-02-26T08:49:59;2.45;;;1.27;;
78612;SDS011;67933;51.060;3.638;2024-02-26T08:52:24;0.65;;;0.65;;
78612;SDS011;67933;51.060;3.638;2024-02-26T08:54:51;2.97;;;2.22;;
78612;SDS011;67933;51.060;3.638;2024-02-26T08:57:17;1.55;;;1.17;;
78612;SDS011;67933;51.060;3.638;2024-02-26T08:59:45;1.75;;;1.60;;
78612;SDS011;67933;51.060;3.638;2024-02-26T09:02:10;1.70;;;1.55;;
78612;SDS011;67933;51.060;3.638;2024-02-26T09:04:36;2.00;;;1.88;;
78612;SDS011;67933;51.060;3.638;2024-02-26T09:07:01;1.60;;;1.27;;
78612;SDS011;67933;51.060;3.638;2024-02-26T09:09:27;3.40;;;2.40;;
78612;SDS011;67933;51.060;3.638;2024-02-26T09:11:53;2.65;;;1.90;;
78612;SDS011;67933;51.060;3.638;2024-02-26T09:14:20;2.88;;;2.47;;
78612;SDS011;67933;51.060;3.638;2024-02-26T09:16:46;4.38;;;2.17;;
78612;SDS011;67933;51.060;3.638;2024-02-26T09:19:13;4.57;;;2.30;;
78612;SDS011;67933;51.060;3.638;2024-02-26T09:21:45;10.45;;;6.40;;
78612;SDS011;67933;51.060;3.638;2024-02-26T09:24:11;3.30;;;2.55;;
78612;SDS011;67933;51.060;3.638;2024-02-26T09:26:37;5.72;;;2.75;;
78612;SDS011;67933;51.060;3.638;2024-02-26T09:29:03;2.17;;;1.83;;
78612;SDS011;67933;51.060;3.638;2024-02-26T09:31:30;2.47;;;2.17;;
78612;SDS011;67933;51.060;3.638;2024-02-26T09:33:55;1.75;;;1.65;;
78612;SDS011;67933;51.060;3.638;2024-02-26T09:36:21;3.53;;;1.98;;
78612;SDS011;67933;51.060;3.638;2024-02-26T09:38:47;0.88;;;0.88;;
78612;SDS011;67933;51.060;3.638;2024-02-26T09:41:16;5.43;;;3.45;;
78612;SDS011;67933;51.060;3.638;2024-02-26T09:43:42;2.47;;;1.33;;
78612;SDS011;67933;51.060;3.638;2024-02-26T09:46:10;2.60;;;2.08;;
78612;SDS011;67933;51.060;3.638;2024-02-26T09:48:35;3.15;;;2.80;;
78612;SDS011;67933;51.060;3.638;2024-02-26T09:51:02;2.88;;;2.55;;
78612;SDS011;67933;51.060;3.638;2024-02-26T09:53:29;2.45;;;1.98;;
78612;SDS011;67933;51.060;3.638;2024-02-26T09:55:56;2.10;;;1.48;;
78612;SDS011;67933;51.060;3.638;2024-02-26T09:58:22;5.18;;;3.05;;
78612;SDS011;67933;51.060;3.638;2024-02-26T10:00:51;3.55;;;1.92;;
78612;SDS011;67933;51.060;3.638;2024-02-26T10:03:19;6.55;;;3.00;;
78612;SDS011;67933;51.060;3.638;2024-02-26T10:05:46;1.20;;;0.73;;
78612;SDS011;67933;51.060;3.638;2024-02-26T10:08:14;4.93;;;3.85;;
78612;SDS011;67933;51.060;3.638;2024-02-26T10:10:40;8.68;;;5.50;;
78612;SDS011;67933;51.060;3.638;2024-02-26T10:13:06;3.83;;;3.40;;
78612;SDS011;67933;51.060;3.638;2024-02-26T10:15:35;5.70;;;4.18;;
78612;SDS011;67933;51.060;3.638;2024-02-26T10:18:03;2.63;;;2.30;;
78612;SDS011;67933;51.060;3.638;2024-02-26T10:20:30;2.55;;;1.67;;
78612;SDS011;67933;51.060;3.638;2024-02-26T10:22:56;4.60;;;2.15;;
78612;SDS011;67933;51.060;3.638;2024-02-26T10:25:22;2.85;;;2.30;;
78612;SDS011;67933;51.060;3.638;2024-02-26T10:27:48;4.60;;;3.40;;
78612;SDS011;67933;51.060;3.638;2024-02-26T10:30:18;1.63;;;1.30;;
78612;SDS011;67933;51.060;3.638;2024-02-26T10:32:47;3.75;;;2.50;;
78612;SDS011;67933;51.060;3.638;2024-02-26T10:35:14;4.95;;;2.60;;
78612;SDS011;67933;51.060;3.638;2024-02-26T10:37:40;1.67;;;1.15;;
78612;SDS011;67933;51.060;3.638;2024-02-26T10:40:15;6.65;;;3.75;;
78612;SDS011;67933;51.060;3.638;2024-02-26T10:42:42;3.13;;;2.65;;
78612;SDS011;67933;51.060;3.638;2024-02-26T10:45:08;8.13;;;4.78;;
78612;SDS011;67933;51.060;3.638;2024-02-26T10:47:35;4.18;;;2.70;;
78612;SDS011;67933;51.060;3.638;2024-02-26T10:50:01;1.88;;;1.65;;
78612;SDS011;67933;51.060;3.638;2024-02-26T10:52:28;4.18;;;2.97;;
78612;SDS011;67933;51.060;3.638;2024-02-26T10:54:58;8.32;;;4.68;;
78612;SDS011;67933;51.060;3.638;2024-02-26T10:57:27;10.23;;;4.47;;
78612;SDS011;67933;51.060;3.638;2024-02-26T10:59:57;3.53;;;2.35;;
78612;SDS011;67933;51.060;3.638;2024-02-26T11:02:25;5.85;;;4.90;;
78612;SDS011;67933;51.060;3.638;2024-02-26T11:04:52;4.85;;;3.40;;
78612;SDS011;67933;51.060;3.638;2024-02-26T11:07:18;6.15;;;3.00;;
78612;SDS011;67933;51.060;3.638;2024-02-26T11:09:45;6.13;;;4.35;;
78612;SDS011;67933;51.060;3.638;2024-02-26T11:12:16;9.02;;;5.28;;
78612;SDS011;67933;51.060;3.638;2024-02-26T11:14:44;9.65;;;4.82;;
78612;SDS011;67933;51.060;3.638;2024-02-26T11:17:10;3.83;;;2.75;;
78612;SDS011;67933;51.060;3.638;2024-02-26T11:19:37;5.05;;;4.13;;
78612;SDS011;67933;51.060;3.638;2024-02-26T11:22:04;5.55;;;3.20;;
78612;SDS011;67933;51.060;3.638;2024-02-26T11:24:29;6.20;;;3.65;;
78612;SDS011;67933;51.060;3.638;2024-02-26T11:26:58;6.60;;;3.55;;
78612;SDS011;67933;51.060;3.638;2024-02-26T11:29:28;4.30;;;3.13;;
78612;SDS011;67933;51.060;3.638;2024-02-26T11:31:59;10.15;;;3.47;;
78612;SDS011;67933;51.060;3.638;2024-02-26T11:34:25;4.35;;;2.90;;
78612;SDS011;67933;51.060;3.638;2024-02-26T11:36:51;3.75;;;3.30;;
78612;SDS011;67933;51.060;3.638;2024-02-26T11:39:17;4.72;;;2.85;;
78612;SDS011;67933;51.060;3.638;2024-02-26T11:41:43;7.97;;;4.50;;
78612;SDS011;67933;51.060;3.638;2024-02-26T11:44:08;5.35;;;3.42;;
78612;SDS011;67933;51.060;3.638;2024-02-26T11:46:40;4.15;;;3.10;;
78612;SDS011;67933;51.060;3.638;2024-02-26T11:52:04;4.78;;;3.17;;
78612;SDS011;67933;51.060;3.638;2024-02-26T12:00:14;4.70;;;3.45;;
78612;SDS011;67933;51.060;3.638;2024-02-26T12:02:55;3.15;;;2.13;;
78612;SDS011;67933;51.060;3.638;2024-02-26T12:05:30;3.10;;;1.83;;
78612;SDS011;67933;51.060;3.638;2024-02-26T12:08:03;3.80;;;2.60;;
78612;SDS011;67933;51.060;3.638;2024-02-26T12:10:32;3.10;;;2.17;;
78612;SDS011;67933;51.060;3.638;2024-02-26T12:13:15;3.85;;;2.65;;
78612;SDS011;67933;51.060;3.638;2024-02-26T12:15:43;2.30;;;1.60;;
78612;SDS011;67933;51.060;3.638;2024-02-26T12:18:20;1.95;;;1.83;;
78612;SDS011;67933;51.060;3.638;2024-02-26T12:20:47;1.85;;;1.63;;
78612;SDS011;67933;51.060;3.638;2024-02-26T12:23:23;2.15;;;1.25;;
78612;SDS011;67933;51.060;3.638;2024-02-26T12:25:48;2.38;;;1.98;;
78612;SDS011;67933;51.060;3.638;2024-02-26T12:28:14;3.03;;;2.10;;
78612;SDS011;67933;51.060;3.638;2024-02-26T12:30:40;2.05;;;1.80;;
78612;SDS011;67933;51.060;3.638;2024-02-26T12:33:05;2.80;;;2.10;;
78612;SDS011;67933;51.060;3.638;2024-02-26T12:35:33;2.75;;;2.10;;
78612;SDS011;67933;51.060;3.638;2024-02-26T12:38:00;3.92;;;2.63;;
78612;SDS011;67933;51.060;3.638;2024-02-26T12:40:25;1.50;;;1.40;;
78612;SDS011;67933;51.060;3.638;2024-02-26T12:42:52;2.70;;;2.17;;
78612;SDS011;67933;51.060;3.638;2024-02-26T12:45:20;1.17;;;0.98;;
78612;SDS011;67933;51.060;3.638;2024-02-26T12:47:45;1.55;;;1.45;;
78612;SDS011;67933;51.060;3.638;2024-02-26T12:50:11;3.33;;;1.50;;
78612;SDS011;67933;51.060;3.638;2024-02-26T12:52:44;1.77;;;1.20;;
78612;SDS011;67933;51.060;3.638;2024-02-26T12:55:11;2.47;;;1.15;;
78612;SDS011;67933;51.060;3.638;2024-02-26T12:57:40;1.55;;;1.45;;
78612;SDS011;67933;51.060;3.638;2024-02-26T13:00:11;2.35;;;1.50;;
78612;SDS011;67933;51.060;3.638;2024-02-26T13:02:39;2.97;;;2.45;;
78612;SDS011;67933;51.060;3.638;2024-02-26T13:07:33;2.28;;;1.63;;
78612;SDS011;67933;51.060;3.638;2024-02-26T13:10:05;3.55;;;2.88;;
78612;SDS011;67933;51.060;3.638;2024-02-26T13:12:31;3.20;;;2.33;;
78612;SDS011;67933;51.060;3.638;2024-02-26T13:15:03;2.20;;;1.45;;
78612;SDS011;67933;51.060;3.638;2024-02-26T13:17:32;1.92;;;1.77;;
78612;SDS011;67933;51.060;3.638;2024-02-26T13:19:59;1.38;;;1.15;;
78612;SDS011;67933;51.060;3.638;2024-02-26T13:22:24;3.53;;;2.33;;
78612;SDS011;67933;51.060;3.638;2024-02-26T13:24:54;2.63;;;1.55;;
78612;SDS011;67933;51.060;3.638;2024-02-26T13:27:21;1.33;;;1.00;;
78612;SDS011;67933;51.060;3.638;2024-02-26T13:29:48;1.48;;;1.13;;
78612;SDS011;67933;51.060;3.638;2024-02-26T13:32:13;2.45;;;2.15;;
78612;SDS011;67933;51.060;3.638;2024-02-26T13:34:39;2.70;;;1.17;;
78612;SDS011;67933;51.060;3.638;2024-02-26T13:37:04;3.35;;;2.25;;
78612;SDS011;67933;51.060;3.638;2024-02-26T13:39:30;2.97;;;2.13;;
78612;SDS011;67933;51.060;3.638;2024-02-26T13:41:56;2.85;;;1.77;;
78612;SDS011;67933;51.060;3.638;2024-02-26T13:44:22;2.83;;;1.70;;
78612;SDS011;67933;51.060;3.638;2024-02-26T13:46:49;7.65;;;1.92;;
78612;SDS011;67933;51.060;3.638;2024-02-26T13:49:14;1.48;;;1.25;;
78612;SDS011;67933;51.060;3.638;2024-02-26T13:51:40;1.42;;;1.20;;
78612;SDS011;67933;51.060;3.638;2024-02-26T13:54:06;2.70;;;2.50;;
78612;SDS011;67933;51.060;3.638;2024-02-26T13:56:32;3.33;;;2.38;;
78612;SDS011;67933;51.060;3.638;2024-02-26T13:58:58;2.90;;;2.60;;
78612;SDS011;67933;51.060;3.638;2024-02-26T14:01:24;3.22;;;2.92;;
78612;SDS011;67933;51.060;3.638;2024-02-26T14:03:50;1.58;;;1.17;;
78612;SDS011;67933;51.060;3.638;2024-02-26T14:06:16;1.27;;;1.17;;
78612;SDS011;67933;51.060;3.638;2024-02-26T14:08:42;2.55;;;1.92;;
78612;SDS011;67933;51.060;3.638;2024-02-26T14:11:08;3.85;;;2.42;;
78612;SDS011;67933;51.060;3.638;2024-02-26T14:13:34;2.35;;;1.80;;
78612;SDS011;67933;51.060;3.638;2024-02-26T14:15:59;0.90;;;0.90;;
78612;SDS011;67933;51.060;3.638;2024-02-26T14:18:25;0.75;;;0.63;;
78612;SDS011;67933;51.060;3.638;2024-02-26T14:20:52;2.90;;;2.20;;
78612;SDS011;67933;51.060;3.638;2024-02-26T14:23:17;4.55;;;3.20;;
78612;SDS011;67933;51.060;3.638;2024-02-26T14:25:43;2.13;;;1.95;;
78612;SDS011;67933;51.060;3.638;2024-02-26T14:28:08;2.45;;;1.92;;
78612;SDS011;67933;51.060;3.638;2024-02-26T14:30:34;2.72;;;1.65;;
78612;SDS011;67933;51.060;3.638;2024-02-26T14:32:59;1.35;;;1.25;;
78612;SDS011;67933;51.060;3.638;2024-02-26T14:35:25;1.38;;;1.27;;
78612;SDS011;67933;51.060;3.638;2024-02-26T14:37:51;3.28;;;2.40;;
78612;SDS011;67933;51.060;3.638;2024-02-26T14:40:17;5.07;;;3.17;;
78612;SDS011;67933;51.060;3.638;2024-02-26T14:42:43;4.13;;;2.45;;
78612;SDS011;67933;51.060;3.638;2024-02-26T14:45:10;1.23;;;1.13;;
78612;SDS011;67933;51.060;3.638;2024-02-26T14:47:36;5.78;;;3.40;;
78612;SDS011;67933;51.060;3.638;2024-02-26T14:50:02;2.33;;;2.08;;
78612;SDS011;67933;51.060;3.638;2024-02-26T14:52:28;2.20;;;1.88;;
78612;SDS011;67933;51.060;3.638;2024-02-26T14:54:54;2.85;;;2.33;;
78612;SDS011;67933;51.060;3.638;2024-02-26T14:57:19;2.88;;;1.92;;